Map

Track Data

SID SEASON NUMBER BASIN SUBBASIN NAME ISO_TIME NATURE LAT LON WMO_WIND WMO_PRES WMO_AGENCY TRACK_TYPE DIST2LAND LANDFALL IFLAG USA_AGENCY USA_ATCF_ID USA_LAT USA_LON USA_RECORD USA_STATUS USA_WIND USA_PRES USA_SSHS USA_R34_NE USA_R34_SE USA_R34_SW USA_R34_NW USA_R50_NE USA_R50_SE USA_R50_SW USA_R50_NW USA_R64_NE USA_R64_SE USA_R64_SW USA_R64_NW USA_POCI USA_ROCI USA_RMW USA_EYE TOKYO_LAT TOKYO_LON TOKYO_GRADE TOKYO_WIND TOKYO_PRES TOKYO_R50_DIR TOKYO_R50_LONG TOKYO_R50_SHORT TOKYO_R30_DIR TOKYO_R30_LONG TOKYO_R30_SHORT TOKYO_LAND CMA_LAT CMA_LON CMA_CAT CMA_WIND CMA_PRES HKO_LAT HKO_LON HKO_CAT HKO_WIND HKO_PRES NEWDELHI_LAT NEWDELHI_LON NEWDELHI_GRADE NEWDELHI_WIND NEWDELHI_PRES NEWDELHI_CI NEWDELHI_DP NEWDELHI_POCI REUNION_LAT REUNION_LON REUNION_TYPE REUNION_WIND REUNION_PRES REUNION_TNUM REUNION_CI REUNION_RMW REUNION_R34_NE REUNION_R34_SE REUNION_R34_SW REUNION_R34_NW REUNION_R50_NE REUNION_R50_SE REUNION_R50_SW REUNION_R50_NW REUNION_R64_NE REUNION_R64_SE REUNION_R64_SW REUNION_R64_NW BOM_LAT BOM_LON BOM_TYPE BOM_WIND BOM_PRES BOM_TNUM BOM_CI BOM_RMW BOM_R34_NE BOM_R34_SE BOM_R34_SW BOM_R34_NW BOM_R50_NE BOM_R50_SE BOM_R50_SW BOM_R50_NW BOM_R64_NE BOM_R64_SE BOM_R64_SW BOM_R64_NW BOM_ROCI BOM_POCI BOM_EYE BOM_POS_METHOD BOM_PRES_METHOD NADI_LAT NADI_LON NADI_CAT NADI_WIND NADI_PRES WELLINGTON_LAT WELLINGTON_LON WELLINGTON_WIND WELLINGTON_PRES DS824_LAT DS824_LON DS824_STAGE DS824_WIND DS824_PRES TD9636_LAT TD9636_LON TD9636_STAGE TD9636_WIND TD9636_PRES TD9635_LAT TD9635_LON TD9635_WIND TD9635_PRES TD9635_ROCI NEUMANN_LAT NEUMANN_LON NEUMANN_CLASS NEUMANN_WIND NEUMANN_PRES MLC_LAT MLC_LON MLC_CLASS MLC_WIND MLC_PRES USA_GUST BOM_GUST BOM_GUST_PER REUNION_GUST REUNION_GUST_PER USA_SEAHGT USA_SEARAD_NE USA_SEARAD_SE USA_SEARAD_SW USA_SEARAD_NW STORM_SPEED STORM_DIR
1971066S10091 1971 28 SI WA MAGGIE-MURIEL:MURIEL 1971-03-07 00:00:00 TS -10.0000 91.0000 1004 bom main 1276 1276 ______O__O__O_ -1 -10.0000 91.0000 1004 -10.0000 91.0000 TC 20 1004 -10.0000 91.0000 TC 20 1004 7 254
1971066S10091 1971 28 SI WA MAGGIE-MURIEL:MURIEL 1971-03-07 03:00:00 TS -10.0934 90.6792 1004 bom main 1307 1307 ______O__P__P_ -1 -10.1000 90.7000 1004 -10.0900 90.7050 TC 20 1004 -10.0901 90.6325 TC 20 1004 7 252
1971066S10091 1971 28 SI WA MAGGIE-MURIEL:MURIEL 1971-03-07 06:00:00 TS -10.2000 90.3667 1004 bom main 1338 1338 ______O__O__O_ -1 -10.2000 90.4000 1004 -10.2000 90.4000 TC 20 1004 -10.2000 90.3000 TC 20 1004 7 246
1971066S10091 1971 28 SI WA MAGGIE-MURIEL:MURIEL 1971-03-07 09:00:00 TS -10.3617 90.0708 1004 bom main 1377 1377 ______O__P__P_ -1 -10.4000 90.1000 1004 -10.3425 90.0850 TC 20 1004 -10.3425 90.0275 TC 20 1004 6 242
1971066S10091 1971 28 SI MM MAGGIE-MURIEL:MURIEL 1971-03-07 12:00:00 TS -10.5000 89.8000 1004 bom main 1408 1408 ______O__O__O_ -1 -10.5000 89.8000 1004 -10.5000 89.8000 TC 20 1004 -10.5000 89.8000 TC 20 1004 5 240
1971066S10091 1971 28 SI MM MAGGIE-MURIEL:MURIEL 1971-03-07 15:00:00 TS -10.6383 89.5925 1004 bom main 1432 1432 ______O__P__P_ -1 -10.6000 89.6000 1004 -10.6575 89.5850 TC 20 1004 -10.6575 89.5925 TC 20 1004 5 233
1971066S10091 1971 28 SI MM MAGGIE-MURIEL:MURIEL 1971-03-07 18:00:00 TS -10.8000 89.4000 1004 bom main 1463 1463 ______O__O__O_ -1 -10.8000 89.4000 1004 -10.8000 89.4000 TC 20 1004 -10.8000 89.4000 TC 20 1004 5 235
1971066S10091 1971 28 SI MM MAGGIE-MURIEL:MURIEL 1971-03-07 21:00:00 TS -10.9000 89.2100 1004 bom main 1487 1487 ______O__P__P_ -1 -10.9000 89.2000 1004 -10.9000 89.2149 TC 20 1004 -10.9000 89.2149 TC 20 1004 4 243
1971066S10091 1971 28 SI MM MAGGIE-MURIEL:MURIEL 1971-03-08 00:00:00 TS -11.0000 89.0000 1004 bom main 1510 1510 ______O__O__O_ -1 -11.0000 89.0000 1004 -11.0000 89.0000 TC 20 1004 -11.0000 89.0000 TC 20 1004 6 241
1971066S10091 1971 28 SI MM MAGGIE-MURIEL:MURIEL 1971-03-08 03:00:00 TS -11.1667 88.7100 1004 bom main 1549 1549 ______O__P__P_ -1 -11.2000 88.7000 1004 -11.1500 88.7150 TC 22 1003 -11.1500 88.7150 TC 22 1003 7 243
1971066S10091 1971 28 SI MM MAGGIE-MURIEL:MURIEL 1971-03-08 06:00:00 TS -11.3000 88.4000 1003 bom main 1581 1581 ______O__O__O_ -1 -11.3000 88.4000 1003 -11.3000 88.4000 TC 25 1003 -11.3000 88.4000 TC 25 1003 6 249
1971066S10091 1971 28 SI MM MAGGIE-MURIEL:MURIEL 1971-03-08 09:00:00 TS -11.4000 88.1000 1003 bom main 1613 1613 ______O__P__P_ -1 -11.4000 88.1000 1003 -11.4000 88.0999 TC 25 1002 -11.4000 88.0999 TC 25 1002 6 251
1971066S10091 1971 28 SI MM MAGGIE-MURIEL:MURIEL 1971-03-08 12:00:00 TS -11.5000 87.8000 1002 bom main 1645 1645 ______O__O__O_ -1 -11.5000 87.8000 1002 -11.5000 87.8000 TC 25 1002 -11.5000 87.8000 TC 25 1002 7 249
1971066S10091 1971 28 SI MM MAGGIE-MURIEL:MURIEL 1971-03-08 15:00:00 TS -11.6334 87.4800 1001 bom main 1677 1677 ______O__P__P_ -1 -11.6000 87.5000 1001 -11.6500 87.4701 TC 27 1001 -11.6500 87.4701 TC 27 1001 7 243
1971066S10091 1971 28 SI MM MAGGIE-MURIEL:MURIEL 1971-03-08 18:00:00 TS -11.8000 87.2000 1000 bom main 1717 1717 ______O__O__O_ -1 -11.8000 87.2000 1000 -11.8000 87.2000 TC 30 1000 -11.8000 87.2000 TC 30 1000 5 235
1971066S10091 1971 28 SI MM MAGGIE-MURIEL:MURIEL 1971-03-08 21:00:00 TS -11.9050 87.0800 999 bom main 1732 1732 ______O__P__P_ -1 -11.9000 87.1000 999 -11.9074 87.0699 TC 32 999 -11.9074 87.0699 TC 32 994 3 224
1971066S10091 1971 28 SI MM MAGGIE-MURIEL:MURIEL 1971-03-09 00:00:00 TS -12.0000 87.0000 998 bom main 1748 1748 ______O__O__O_ -1 -12.0000 87.0000 998 -12.0000 87.0000 TC 35 998 -12.0000 87.0000 TC 35 988 3 223
1971066S10091 1971 28 SI MM MAGGIE-MURIEL:MURIEL 1971-03-09 03:00:00 TS -12.0950 86.9000 998 bom main 1763 1763 ______O__P__P_ -1 -12.1000 86.9000 998 -12.0925 86.9000 TC 35 997 -12.0925 86.9000 TC 35 992 3 224
1971066S10091 1971 28 SI MM MAGGIE-MURIEL:MURIEL 1971-03-09 06:00:00 TS -12.2000 86.8000 997 bom main 1779 1779 ______O__O__O_ -1 -12.2000 86.8000 997 -12.2000 86.8000 TC 35 997 -12.2000 86.8000 TC 35 997 3 219
1971066S10091 1971 28 SI MM MAGGIE-MURIEL:MURIEL 1971-03-09 09:00:00 TS -12.3333 86.7000 996 bom main 1794 1794 ______O__P__P_ -1 -12.3000 86.7000 996 -12.3500 86.7000 TC 37 996 -12.3500 86.7000 TC 37 996 4 213
1971066S10091 1971 28 SI MM MAGGIE-MURIEL:MURIEL 1971-03-09 12:00:00 TS -12.5000 86.6000 995 bom main 1817 1817 ______O__O__O_ -1 -12.5000 86.6000 995 -12.5000 86.6000 TC 40 995 -12.5000 86.6000 TC 40 995 3 215
1971066S10091 1971 28 SI MM MAGGIE-MURIEL:MURIEL 1971-03-09 15:00:00 TS -12.6000 86.5100 994 bom main 1833 1833 ______O__P__P_ -1 -12.6000 86.5000 994 -12.6000 86.5150 TC 40 994 -12.6000 86.5150 TC 40 995 3 224
1971066S10091 1971 28 SI MM MAGGIE-MURIEL:MURIEL 1971-03-09 18:00:00 TS -12.7000 86.4000 993 bom main 1848 1848 ______O__O__O_ -1 -12.7000 86.4000 993 -12.7000 86.4000 TC 40 993 -12.7000 86.4000 TC 40 995 4 231
1971066S10091 1971 28 SI MM MAGGIE-MURIEL:MURIEL 1971-03-09 21:00:00 TS -12.8434 86.2001 992 bom main 1872 1872 ______O__P__P_ -1 -12.8000 86.2000 992 -12.8650 86.2001 TC 42 991 -12.8650 86.2001 TC 42 992 5 232
1971066S10091 1971 28 SI MM MAGGIE-MURIEL:MURIEL 1971-03-10 00:00:00 TS -13.0000 86.0000 990 bom main 1903 1903 ______O__O__O_ -1 -13.0000 86.0000 990 -13.0000 86.0000 TC 45 990 -13.0000 86.0000 TC 45 990 3 240
1971066S10091 1971 28 SI MM MAGGIE-MURIEL:MURIEL 1971-03-10 03:00:00 TS -13.0150 85.8900 989 bom main 1911 1911 ______O__P__P_ -1 -13.0000 85.9000 989 -13.0225 85.8850 TC 47 989 -13.0225 85.8850 TC 47 989 2 270
1971066S10091 1971 28 SI MM MAGGIE-MURIEL:MURIEL 1971-03-10 06:00:00 TS -13.0000 85.8000 988 bom main 1919 1919 ______O__O__O_ -1 -13.0000 85.8000 988 -13.0000 85.8000 TC 50 988 -13.0000 85.8000 TC 50 988 2 275
1971066S10091 1971 28 SI MM MAGGIE-MURIEL:MURIEL 1971-03-10 09:00:00 TS -13.0000 85.7000 986 bom main 1928 1928 ______O__P__P_ -1 -13.0000 85.7000 986 -13.0000 85.7000 TC 52 986 -13.0000 85.7000 TC 52 986 2 270
1971066S10091 1971 28 SI MM MAGGIE-MURIEL:MURIEL 1971-03-10 12:00:00 TS -13.0000 85.6000 985 bom main 1936 1936 ______O__O__O_ -1 -13.0000 85.6000 985 -13.0000 85.6000 TC 55 985 -13.0000 85.6000 TC 55 985 2 270
1971066S10091 1971 28 SI MM MAGGIE-MURIEL:MURIEL 1971-03-10 15:00:00 TS -13.0000 85.4875 984 bom main 1944 1928 ______O__P__P_ -1 -13.0000 85.5000 984 -13.0000 85.5150 TC 55 984 -13.0000 85.4475 TC 55 984 1 80
1971066S10091 1971 28 SI MM MAGGIE-MURIEL:MURIEL 1971-03-10 18:00:00 TS -12.9800 85.7200 983 bom main 1928 1911 O_____O__OO_O_ jtwc_sh SH231971 -12.9000 87.0000 -1 -13.0000 85.4000 983 -13.0000 85.4000 TC 55 983 -12.9000 87.0000 2 -13.0000 85.4000 TC 55 983 4 83
1971066S10091 1971 28 SI MM MAGGIE-MURIEL:MURIEL 1971-03-10 21:00:00 TS -12.9493 85.9321 982 bom main 1904 1887 P_____O__PP_P_ SH231971 -12.8325 87.1300 -1 -13.0000 85.2000 982 -13.0000 85.2000 TC 57 981 -12.8780 87.0734 2 -13.0001 85.6275 TC 57 981 4 81
1971066S10091 1971 28 SI MM MAGGIE-MURIEL:MURIEL 1971-03-11 00:00:00 TS -12.9236 86.1025 980 bom main 1887 1879 O_____O__OP_O_ jtwc_sh SH231971 -12.8000 87.2000 -1 -13.0000 85.0000 980 -13.0000 85.0000 TC 60 980 -12.8649 87.1175 2 -13.0000 85.9000 TC 60 980 3 84
1971066S10091 1971 28 SI MM MAGGIE-MURIEL:MURIEL 1971-03-11 03:00:00 TS -12.9207 86.1967 979 bom main 1879 1879 P_____O__PP_P_ SH231971 -12.8274 87.1600 -1 -13.0000 84.9000 979 -13.0000 84.8850 TC 60 979 -12.8693 87.1028 2 -13.0000 85.9725 TC 62 979 0 121
1971066S10091 1971 28 SI MM MAGGIE-MURIEL:MURIEL 1971-03-11 06:00:00 TS -12.9440 86.1360 978 bom main 1887 1887 O____OO__OO_O_ jtwc_sh SH231971 -12.9000 87.0000 -1 -12.8000 87.0000 3 9.90000 -13.0000 84.8000 978 -13.0000 84.8000 TC 60 978 -12.9000 87.0000 2 -13.0000 86.0000 TC 65 978 2 250
1971066S10091 1971 28 SI MM MAGGIE-MURIEL:MURIEL 1971-03-11 09:00:00 TS -12.9844 86.0210 977 bom main 1903 1903 P____PO__PP_P_ SH231971 -12.9925 86.7300 -1 -12.9151 86.6076 3 -13.0000 84.7000 977 -13.0000 84.7150 TC 62 977 -12.9633 86.7903 2 -12.9924 86.1675 TC 65 977 3 253
1971066S10091 1971 28 SI MM MAGGIE-MURIEL:MURIEL 1971-03-11 12:00:00 TS -13.0378 85.8293 976 bom main 1919 1919 O____OO__OP_O_ jtwc_sh SH231971 -13.1000 86.4000 -1 -13.0000 86.2000 99 9.90000 -13.0000 84.6000 976 -13.0000 84.6000 TC 65 976 -13.0552 86.4975 2 -13.0000 86.2000 TC 65 976 5 257
1971066S10091 1971 28 SI MM MAGGIE-MURIEL:MURIEL 1971-03-11 15:00:00 TS -13.0892 85.5551 975 bom main 1943 1943 P____PO__PP_P_ SH231971 -13.1925 86.1000 -1 -13.0425 85.7774 99 -13.0000 84.5000 975 -13.0000 84.4000 TC 65 975 -13.1695 86.1559 2 -13.0277 85.8525 TC 67 975 6 258
1971066S10091 1971 28 SI MM MAGGIE-MURIEL:MURIEL 1971-03-11 18:00:00 TS -13.1571 85.2286 974 bom main 1984 1984 O____OO__OO_O_ jtwc_sh SH231971 -13.3000 85.8000 -1 -13.1000 85.4000 99 9.90000 -13.0000 84.2000 974 -13.0000 84.2000 TC 65 974 -13.3000 85.8000 2 -13.1000 85.4000 TC 70 974 6 254
1971066S10091 1971 28 SI MM MAGGIE-MURIEL:MURIEL 1971-03-11 21:00:00 TS -13.2455 85.0067 973 bom main 2001 2001 P____PO__PP_P_ SH231971 -13.4424 85.5075 -1 -13.2273 85.1424 99 -13.0000 84.1000 973 -12.9398 84.1447 TC 67 972 -13.4394 85.5024 2 -13.2273 85.1424 TC 72 972 5 244
1971066S10091 1971 28 SI MM MAGGIE-MURIEL:MURIEL 1971-03-12 00:00:00 TS -13.3703 84.7707 970 bom main 2031 2031 O____OO__OP_O_ jtwc_sh SH231971 -13.6000 85.2000 -1 -13.4000 84.9000 99 9.90000 -13.0000 84.0000 970 -13.0000 84.0000 TC 70 970 -13.5921 85.1949 2 -13.4000 84.9000 TC 75 970 7 239
1971066S10091 1971 28 SI MM MAGGIE-MURIEL:MURIEL 1971-03-12 03:00:00 TS -13.6027 84.4000 969 bom main 2079 2079 P____PO__PP_P_ SH231971 -13.7574 84.8725 -1 -13.6075 84.5651 99 -13.4000 83.5000 969 -13.3402 83.5603 TC 72 969 -13.7487 84.8649 2 -13.6075 84.5651 TC 75 969 8 235
1971066S10091 1971 28 SI MM MAGGIE-MURIEL:MURIEL 1971-03-12 06:00:00 TS -13.8462 84.0615 968 bom main 2119 2119 O____OO__OO_O_ jtwc_sh SH231971 -13.9000 84.5000 -1 -13.8000 84.2000 3 9.90000 -13.8000 83.0000 968 -13.8000 83.0000 TC 75 968 -13.9000 84.5000 2 -13.8000 84.2000 TC 76 968 8 238
1971066S10091 1971 28 SI MM MAGGIE-MURIEL:MURIEL 1971-03-12 09:00:00 TS -14.0103 83.7370 967 bom main 2166 2166 P____PO__PP_P_ SH231971 -14.0000 84.0649 -1 -13.9149 83.8574 3 -14.2000 82.5000 967 -14.1995 82.4943 TC 75 967 -14.0323 84.0777 2 -13.9149 83.8574 TC 78 967 7 246
1971066S10091 1971 28 SI MM MAGGIE-MURIEL:MURIEL 1971-03-12 12:00:00 TS -14.1196 83.4222 966 bom main 2199 2199 O____OO__OP_O_ jtwc_sh SH231971 -14.1000 83.6000 -1 -14.0000 83.5000 99 9.90000 -14.6000 82.0000 966 -14.6000 82.0000 TC 75 966 -14.1577 83.6224 2 -14.0000 83.5000 TC 80 966 6 253
1971066S10091 1971 28 SI MM MAGGIE-MURIEL:MURIEL 1971-03-12 15:00:00 TS -14.1868 83.1341 965 bom main 2231 2231 P____P____P_P_ SH231971 -14.2500 83.1425 -1 -14.0774 83.1148 99 TC -14.2792 83.1558 2 -14.0774 83.1148 TC 82 963 7 254
1971066S10091 1971 28 SI MM MAGGIE-MURIEL:MURIEL 1971-03-12 18:00:00 TS -14.3200 82.7000 960 bom main 2272 2272 O____O____O_O_ jtwc_sh SH231971 -14.4000 82.7000 -1 -14.2000 82.7000 99 9.90000 TC -14.4000 82.7000 2 -14.2000 82.7000 TC 85 960 9 251
1971066S10091 1971 28 SI MM MAGGIE-MURIEL:MURIEL 1971-03-12 21:00:00 TS -14.4819 82.2733 960 bom main 2293 2291 P____P____P_P_ SH231971 -14.4999 82.2924 -1 -14.4425 82.2502 99 TC -14.5247 82.2814 2 -14.4425 82.2502 TC 85 960 9 248
1971066S10091 1971 28 SI MM MAGGIE-MURIEL:MURIEL 1971-03-13 00:00:00 TS -14.6499 81.8555 960 bom main 2301 2301 O____O____P_O_ jtwc_sh SH231971 -14.6000 81.9000 -1 -14.7000 81.8000 99 9.90000 TC -14.6496 81.8773 2 -14.7000 81.8000 TC 85 960 9 248
1971066S10091 1971 28 SI MM MAGGIE-MURIEL:MURIEL 1971-03-13 03:00:00 TS -14.8069 81.4539 main 2321 2320 P____P____P_P_ SH231971 -14.7500 81.4925 -1 -14.8798 81.3999 99 TC -14.7748 81.4846 2 -14.8798 81.3999 TC 85 960 8 249
1971066S10091 1971 28 SI MM MAGGIE-MURIEL:MURIEL 1971-03-13 06:00:00 TS -14.9400 81.0600 main 2330 2330 O____O____O_O_ jtwc_sh SH231971 -14.9000 81.1000 -1 -15.0000 81.0000 4 9.90000 TC -14.9000 81.1000 2 -15.0000 81.0000 TC 85 960 8 254
1971066S10091 1971 28 SI MM MAGGIE-MURIEL:MURIEL 1971-03-13 09:00:00 TS -15.0271 80.6615 main 2341 2341 P____P____P_P_ SH231971 -14.9999 80.7499 -1 -15.0576 80.5349 4 TC -15.0204 80.7378 2 -15.0576 80.5349 TC 85 960 8 257
1971066S10091 1971 28 SI MM MAGGIE-MURIEL:MURIEL 1971-03-13 12:00:00 TS -15.1084 80.2759 main 2352 2352 O____O____P_O_ jtwc_sh SH231971 -15.1000 80.4000 -1 -15.1000 80.1000 99 9.90000 TC -15.1418 80.3795 2 -15.1000 80.1000 TC 85 960 7 255
1971066S10091 1971 28 SI MM MAGGIE-MURIEL:MURIEL 1971-03-13 15:00:00 TS -15.2213 79.9242 main 2365 2365 P____P____P_P_ SH231971 -15.2424 80.0225 -1 -15.1773 79.7849 99 TC -15.2672 80.0065 2 -15.1773 79.7849 TC 85 960 7 250
1971066S10091 1971 28 SI MM MAGGIE-MURIEL:MURIEL 1971-03-13 18:00:00 TS -15.3600 79.5600 reunion main 2369 2325 O____O____O_O_ jtwc_sh SH231971 -15.4000 79.6000 -1 -15.3000 79.5000 99 9.90000 TC -15.4000 79.6000 2 -15.3000 79.5000 TC 85 960 8 248
1971066S10091 1971 28 SI MM MAGGIE-MURIEL:MURIEL 1971-03-13 21:00:00 TS -15.5247 79.1384 main 2315 2267 P____P____P_P_ SH231971 -15.5500 79.1150 -1 -15.4924 79.1650 99 TC -15.5388 79.1318 2 -15.4924 79.1650 TC 87 959 9 248
1971066S10091 1971 28 SI MM MAGGIE-MURIEL:MURIEL 1971-03-14 00:00:00 TS -15.6970 78.6860 reunion main 2267 2223 O____O____P_O_ jtwc_sh SH231971 -15.7000 78.6000 -1 -15.7000 78.8000 99 9.90000 TC -15.6851 78.6298 2 -15.7000 78.8000 TC 90 958 9 250
1971066S10091 1971 28 SI MM MAGGIE-MURIEL:MURIEL 1971-03-14 03:00:00 TS -15.8507 78.2285 main 2210 2165 P____P____P_P_ SH231971 -15.8499 78.0924 -1 -15.8574 78.4224 99 TC -15.8388 78.1130 2 -15.8574 78.4224 TC 90 958 9 251
1971066S10091 1971 28 SI MM MAGGIE-MURIEL:MURIEL 1971-03-14 06:00:00 TS -16.0000 77.7600 reunion main 2165 2111 O____O____O_O_ jtwc_sh SH231971 -16.0000 77.6000 -1 -16.0000 78.0000 4 9.90000 TC -16.0000 77.6000 4 -16.0000 78.0000 TC 90 958 9 252
1971066S10091 1971 28 SI MM MAGGIE-MURIEL:MURIEL 1971-03-14 09:00:00 TS -16.1367 77.2947 main 2111 2053 P____P____P_P_ SH231971 -16.1423 77.1498 -1 -16.1199 77.5222 4 TC -16.1591 77.1296 4 -16.1199 77.5222 TC 90 957 10 251
1971066S10091 1971 28 SI MM MAGGIE-MURIEL:MURIEL 1971-03-14 12:00:00 TS -16.3053 76.8129 reunion main 2053 1996 O____O____P_O_ jtwc_sh SH231971 -16.3000 76.7000 -1 -16.3000 77.0000 99 9.90000 TC -16.3267 76.6643 4 -16.3000 77.0000 TC 90 957 10 247
1971066S10091 1971 28 SI MM MAGGIE-MURIEL:MURIEL 1971-03-14 15:00:00 TS -16.5431 76.3044 main 1996 1936 P____P____P_P_ SH231971 -16.4999 76.2150 -1 -16.6050 76.4500 99 TC -16.5059 76.1919 4 -16.6050 76.4500 TC 90 956 11 243
1971066S10091 1971 28 SI MM MAGGIE-MURIEL:MURIEL 1971-03-14 18:00:00 TS -16.8200 75.7800 reunion main 1936 1879 O____O____O_O_ jtwc_sh SH231971 -16.7000 75.7000 -1 -17.0000 75.9000 99 9.90000 TC -16.7000 75.7000 4 -17.0000 75.9000 TC 90 956 11 243
1971066S10091 1971 28 SI MM MAGGIE-MURIEL:MURIEL 1971-03-14 21:00:00 TS -17.0638 75.2474 main 1866 1809 P____P____P_P_ SH231971 -16.8349 75.1572 -1 -17.4199 75.3848 99 TC -16.8093 75.1532 4 -17.4199 75.3848 TC 90 956 11 242
1971066S10091 1971 28 SI MM MAGGIE-MURIEL:MURIEL 1971-03-15 00:00:00 TS -17.3496 74.7178 reunion main 1809 1747 O____O____P_O_ jtwc_sh SH231971 -17.0000 74.6000 -1 -17.9000 74.9000 99 9.90000 TC -16.9479 74.5893 4 -17.9000 74.9000 TC 90 956 12 238
1971066S10091 1971 28 SI MM MAGGIE-MURIEL:MURIEL 1971-03-15 03:00:00 TS -17.6955 74.1821 main 1747 1687 P____P____P_P_ SH231971 -17.2174 74.0494 -1 -18.4276 74.3903 99 TC -17.1875 74.0309 4 -18.4276 74.3903 TC 92 955 13 230
1971066S10091 1971 28 SI MM MAGGIE-MURIEL:MURIEL 1971-03-15 06:00:00 TS -18.1600 73.7000 reunion main 1684 1633 O____O____O_O_ jtwc_sh SH231971 -17.6000 73.5000 -1 -19.0000 74.0000 4 9.90000 TC -17.6000 73.5000 4 -19.0000 74.0000 TC 95 954 14 219
1971066S10091 1971 28 SI MM MAGGIE-MURIEL:MURIEL 1971-03-15 09:00:00 TS -18.7561 73.2820 main 1632 1591 P____P____P_P_ SH231971 -18.1951 72.9201 -1 -19.5698 73.8247 4 TC -18.2506 72.9204 4 -19.5698 73.8247 TC 95 953 15 208
1971066S10091 1971 28 SI MM MAGGIE-MURIEL:MURIEL 1971-03-15 12:00:00 TS -19.4952 72.9565 reunion main 1591 1553 O____O____P_O_ jtwc_sh SH231971 -19.0000 72.4000 -1 -20.2000 73.8000 99 9.90000 TC -19.0760 72.3824 4 -20.2000 73.8000 TC 95 953 17 199
1971066S10091 1971 28 SI MM MAGGIE-MURIEL:MURIEL 1971-03-15 15:00:00 TS -20.3616 72.7057 main 1552 1541 P____P____P_P_ SH231971 -19.9625 71.9607 -1 -20.9350 73.8272 99 TC -20.0132 71.9525 4 -20.9350 73.8272 TC 97 952 18 191
1971066S10091 1971 28 SI MM MAGGIE-MURIEL:MURIEL 1971-03-15 18:00:00 TS -21.2800 72.5800 reunion main 1541 1532 O____O____O_O_ jtwc_sh SH231971 -21.0000 71.7000 -1 -21.7000 73.9000 99 9.90000 TC -21.0000 71.7000 4 -21.7000 73.9000 TC 100 951 18 185
1971066S10091 1971 28 SI MM MAGGIE-MURIEL:MURIEL 1971-03-15 21:00:00 TS -22.1119 72.5400 main 1536 1536 P____PO___P_P_ SH231971 -21.9497 71.6449 -1 -22.3925 73.9427 99 -22.0000 72.3000 950 TC -21.9383 71.6856 4 -22.3925 73.9427 TC 100 950 17 177
1971066S10091 1971 28 SI MM MAGGIE-MURIEL:MURIEL 1971-03-16 00:00:00 TS -22.9824 72.6913 reunion main 1568 1568 O____O____P_O_ jtwc_sh SH231971 -22.9000 71.8000 -1 -23.1000 74.0000 99 9.90000 TC -22.9119 71.8564 4 -23.1000 74.0000 TC 100 950 18 169
1971066S10091 1971 28 SI MM MAGGIE-MURIEL:MURIEL 1971-03-16 03:00:00 TS -23.9070 72.9145 main 1605 1605 P____P____P_P_ SH231971 -23.9002 72.1118 -1 -23.9150 74.0998 99 TC -23.9044 72.1493 4 -23.9150 74.0998 TC 100 950 19 166
1971066S10091 1971 28 SI MM MAGGIE-MURIEL:MURIEL 1971-03-16 06:00:00 MX -24.8200 73.1800 reunion main 1657 1657 O____O____O_O_ jtwc_sh SH231971 -24.9000 72.5000 -1 -24.7000 74.2000 3 9.90000 TC -24.9000 72.5000 2 -24.7000 74.2000 EX 100 951 18 166
1971066S10091 1971 28 SI MM MAGGIE-MURIEL:MURIEL 1971-03-16 09:00:00 MX -25.6508 73.3750 main 1704 1704 P____P____P_P_ SH231971 -25.8498 72.7937 -1 -25.3300 74.2577 3 TC -25.8946 72.7720 2 -25.3300 74.2577 EX 97 952 17 168
1971066S10091 1971 28 SI MM MAGGIE-MURIEL:MURIEL 1971-03-16 12:00:00 MX -26.4573 73.5781 reunion main 1751 1751 O____O____P_O_ jtwc_sh SH231971 -26.8000 73.1000 -1 -25.9000 74.3000 99 9.90000 TC -26.8864 73.0905 2 -25.9000 74.3000 EX 95 953 17 166
1971066S10091 1971 28 SI MM MAGGIE-MURIEL:MURIEL 1971-03-16 15:00:00 MX -27.2859 73.8210 main 1801 1801 P____P____P_P_ SH231971 -27.8074 73.4705 -1 -26.4775 74.3501 99 TC -27.8600 73.4637 2 -26.4775 74.3501 EX 95 954 17 164
1971066S10091 1971 28 SI MM MAGGIE-MURIEL:MURIEL 1971-03-16 18:00:00 MX -28.1200 74.1000 reunion main 1862 1862 O____O____O_O_ jtwc_sh SH231971 -28.8000 73.9000 -1 -27.1000 74.4000 99 9.90000 TC -28.8000 73.9000 2 -27.1000 74.4000 EX 95 955 18 163
1971066S10091 1971 28 SI MM MAGGIE-MURIEL:MURIEL 1971-03-16 21:00:00 MX -28.9649 74.4033 main 1931 1931 P____P____P_P_ SH231971 -29.7297 74.3635 -1 -27.8350 74.4427 99 TC -29.6953 74.4042 2 -27.8350 74.4427 EX 92 956 16 160
1971066S10091 1971 28 SI MM MAGGIE-MURIEL:MURIEL 1971-03-17 00:00:00 MX -29.6505 74.7233 reunion main 1992 1992 O____O____P_O_ jtwc_sh SH231971 -30.6000 74.9000 -1 -28.6000 74.5000 99 9.90000 TC -30.5528 74.9657 2 -28.6000 74.5000 EX 90 957 13 159
1971066S10091 1971 28 SI MM MAGGIE-MURIEL:MURIEL 1971-03-17 03:00:00 MX -30.1891 74.9561 main 2043 2043 P____P____P_P_ SH231971 -31.4158 75.5226 -1 -29.2771 74.5195 99 TC -31.3839 75.5694 2 -29.2771 74.5195 EX 90 958 10 161
1971066S10091 1971 28 SI MM MAGGIE-MURIEL:MURIEL 1971-03-17 06:00:00 MX -30.6000 75.1091 reunion main 2073 2059 O____O____O_O_ jtwc_sh SH231971 -32.2000 76.2000 -1 -30.0000 74.7000 5 9.90000 TC -32.2000 76.2000 2 -30.0000 74.7000 EX 90 959 8 164
1971066S10091 1971 28 SI MM MAGGIE-MURIEL:MURIEL 1971-03-17 09:00:00 ET -30.9150 75.1937 main 2059 1976 _____P______P_ SH231971 -1 -30.9150 75.1937 5 TC 2 -30.9150 75.1937 EX 87 960 14 151
1971066S10091 1971 28 SI MM MAGGIE-MURIEL:MURIEL 1971-03-17 12:00:00 ET -31.8000 75.9000 reunion main 1976 1923 _____O______O_ -1 -31.8000 75.9000 99 9.90000 TC 2 -31.8000 75.9000 EX 85 962 19 142
1971066S10091 1971 28 SI MM MAGGIE-MURIEL:MURIEL 1971-03-17 15:00:00 ET -32.4361 76.6130 main 1925 1879 _____P______P_ -1 -32.4361 76.6130 99 TC 2 -32.4361 76.6130 EX 82 962 18 132
1971066S10091 1971 28 SI MM MAGGIE-MURIEL:MURIEL 1971-03-17 18:00:00 ET -33.0000 77.5000 reunion main 1882 1845 _____O______O_ -1 -33.0000 77.5000 99 9.90000 TC -33.0000 77.5000 EX 80 962 21 126
1971066S10091 1971 28 SI MM MAGGIE-MURIEL:MURIEL 1971-03-17 21:00:00 ET -33.6422 78.6184 main 1848 1810 _____P______P_ -1 -33.6422 78.6184 99 TC -33.6422 78.6184 EX 77 966 27 124
1971066S10091 1971 28 SI MM MAGGIE-MURIEL:MURIEL 1971-03-18 00:00:00 MX -34.4750 80.1750 970 bom main 1807 1777 _____OO__O__O_ -1 -34.3000 79.9000 99 9.90000 -35.0000 81.0000 970 -35.0000 81.0000 TC 70 970 -34.3000 79.9000 EX 75 970 34 123
1971066S10091 1971 28 SI MM MAGGIE-MURIEL:MURIEL 1971-03-18 03:00:00 MX -35.5091 82.1064 main 1781 1776 _____P___P__P_ -1 -34.9551 81.2360 99 -35.5040 82.9730 TC 67 973 -34.9551 81.2360 EX 70 39 119
1971066S10091 1971 28 SI MM MAGGIE-MURIEL:MURIEL 1971-03-18 06:00:00 MX -36.3463 84.3923 main 1812 1808 _____O___O__O_ -1 -35.6000 82.6000 5 9.90000 -36.0000 85.0000 TC 65 976 -35.6000 82.6000 EX 65 42 108
1971066S10091 1971 28 SI MM MAGGIE-MURIEL:MURIEL 1971-03-18 09:00:00 TS -36.8318 87.0486 main 1905 1905 _________P____ -1 5 -36.5027 87.1490 TC 60 980 EX 37 102
1971066S10091 1971 28 SI MM MAGGIE-MURIEL:MURIEL 1971-03-18 12:00:00 TS -37.0852 88.9172 main 1989 1989 _________O____ -1 -37.0000 89.0000 TC 55 984 26 105
1971066S10091 1971 28 SI WA MAGGIE-MURIEL:MURIEL 1971-03-18 15:00:00 TS -37.4939 90.1539 main 2035 2033 _________P____ -1 -37.4939 90.1539 TC 50 988 19 119
1971066S10091 1971 28 SI WA MAGGIE-MURIEL:MURIEL 1971-03-18 18:00:00 TS -38.0000 91.0000 main 2046 2044 _________O____ -1 -38.0000 91.0000 TC 45 992 19 124
1971066S10091 1971 28 SI WA MAGGIE-MURIEL:MURIEL 1971-03-18 21:00:00 TS -38.5614 92.1325 main 2071 2025 _________P____ -1 -38.5614 92.1325 TC 40 995 19 123
1971066S10091 1971 28 SI WA MAGGIE-MURIEL:MURIEL 1971-03-19 00:00:00 TS -39.0000 93.0000 998 bom main 2025 2009 _________O____ -1 -39.0000 93.0000 TC 35 998 10 125
1971066S10091 1971 28 SI WA MAGGIE-MURIEL:MURIEL 1971-03-19 03:00:00 TS -39.1585 93.2225 main 2011 2011 _________P____ -1 -39.1585 93.2225 TC 32 998 3 142
1971066S10091 1971 28 SI WA MAGGIE-MURIEL:MURIEL 1971-03-19 06:00:00 TS -39.2000 93.2000 main 2011 1996 _________O____ -1 -39.2000 93.2000 TC 30 999 2 135
1971066S10091 1971 28 SI WA MAGGIE-MURIEL:MURIEL 1971-03-19 09:00:00 TS -39.2926 93.4000 main 1996 1981 _________P____ -1 -39.2926 93.4000 TC 30 999 4 123
1971066S10091 1971 28 SI WA MAGGIE-MURIEL:MURIEL 1971-03-19 12:00:00 TS -39.4000 93.6000 main 1981 1974 _________O____ -1 -39.4000 93.6000 TC 30 1000 3 136
1971066S10091 1971 28 SI WA MAGGIE-MURIEL:MURIEL 1971-03-19 15:00:00 TS -39.5424 93.7151 main 1974 1968 _________P____ -1 -39.5424 93.7151 TC 30 1000 3 153
1971066S10091 1971 28 SI WA MAGGIE-MURIEL:MURIEL 1971-03-19 18:00:00 TS -39.7000 93.8000 main 1970 1963 _________O____ -1 -39.7000 93.8000 TC 30 1000 3 157
1971066S10091 1971 28 SI WA MAGGIE-MURIEL:MURIEL 1971-03-19 21:00:00 TS -39.8525 93.8949 main 1966 1957 _________P____ -1 -39.8525 93.8949 TC 30 1000 3 153
1971066S10091 1971 28 SI WA MAGGIE-MURIEL:MURIEL 1971-03-20 00:00:00 TS -40.0000 94.0000 1000 bom main 1959 _________O____ -1 -40.0000 94.0000 TC 30 1000 3 151

About IBTrACS Database

This database is a web-friendly format of International Best Track Archive for Climate Stewardship (IBTrACS), a global best track data archive curated by NOAA dating back to 1842.

Updated: 2021-11-26